sensor_id;sensor_type;location;lat;lon;timestamp;temperature;humidity
42141;DHT22;27809;51.864;5.646;2023-02-04T00:01:05;7.80;99.90
42141;DHT22;27809;51.864;5.646;2023-02-04T00:03:31;7.80;99.90
42141;DHT22;27809;51.864;5.646;2023-02-04T00:05:56;7.80;99.90
42141;DHT22;27809;51.864;5.646;2023-02-04T00:08:22;7.70;99.90
42141;DHT22;27809;51.864;5.646;2023-02-04T00:10:47;7.70;99.90
42141;DHT22;27809;51.864;5.646;2023-02-04T00:13:13;7.70;99.90
42141;DHT22;27809;51.864;5.646;2023-02-04T00:15:38;7.80;99.90
42141;DHT22;27809;51.864;5.646;2023-02-04T00:18:04;7.80;99.90
42141;DHT22;27809;51.864;5.646;2023-02-04T00:20:31;7.80;99.90
42141;DHT22;27809;51.864;5.646;2023-02-04T00:22:57;7.70;99.90
42141;DHT22;27809;51.864;5.646;2023-02-04T00:25:22;7.70;99.90
42141;DHT22;27809;51.864;5.646;2023-02-04T00:27:48;7.70;99.90
42141;DHT22;27809;51.864;5.646;2023-02-04T00:30:13;7.70;99.90
42141;DHT22;27809;51.864;5.646;2023-02-04T00:32:39;7.70;99.90
42141;DHT22;27809;51.864;5.646;2023-02-04T00:35:05;7.70;99.90
42141;DHT22;27809;51.864;5.646;2023-02-04T00:37:31;7.60;99.90
42141;DHT22;27809;51.864;5.646;2023-02-04T00:39:57;7.50;99.90
42141;DHT22;27809;51.864;5.646;2023-02-04T00:42:22;7.50;99.90
42141;DHT22;27809;51.864;5.646;2023-02-04T00:44:48;7.50;99.90
42141;DHT22;27809;51.864;5.646;2023-02-04T00:47:13;7.40;99.90
42141;DHT22;27809;51.864;5.646;2023-02-04T00:49:39;7.40;99.90
42141;DHT22;27809;51.864;5.646;2023-02-04T00:52:04;7.30;99.90
42141;DHT22;27809;51.864;5.646;2023-02-04T00:54:30;7.20;99.90
42141;DHT22;27809;51.864;5.646;2023-02-04T00:56:56;7.20;99.90
42141;DHT22;27809;51.864;5.646;2023-02-04T00:59:21;7.30;99.90
42141;DHT22;27809;51.864;5.646;2023-02-04T01:01:47;7.20;99.90
42141;DHT22;27809;51.864;5.646;2023-02-04T01:04:12;7.00;99.90
42141;DHT22;27809;51.864;5.646;2023-02-04T01:06:39;6.90;99.90
42141;DHT22;27809;51.864;5.646;2023-02-04T01:09:05;7.00;99.90
42141;DHT22;27809;51.864;5.646;2023-02-04T01:11:30;6.90;99.90
42141;DHT22;27809;51.864;5.646;2023-02-04T01:13:56;6.90;99.90
42141;DHT22;27809;51.864;5.646;2023-02-04T01:16:22;6.90;99.90
42141;DHT22;27809;51.864;5.646;2023-02-04T01:18:48;6.90;99.90
42141;DHT22;27809;51.864;5.646;2023-02-04T01:21:13;6.90;99.90
42141;DHT22;27809;51.864;5.646;2023-02-04T01:23:39;6.90;99.90
42141;DHT22;27809;51.864;5.646;2023-02-04T01:26:04;6.90;99.90
42141;DHT22;27809;51.864;5.646;2023-02-04T01:28:30;7.00;99.90
42141;DHT22;27809;51.864;5.646;2023-02-04T01:30:55;6.90;99.90
42141;DHT22;27809;51.864;5.646;2023-02-04T01:33:21;6.90;99.90
42141;DHT22;27809;51.864;5.646;2023-02-04T01:35:47;6.90;99.90
42141;DHT22;27809;51.864;5.646;2023-02-04T01:38:12;6.70;99.90
42141;DHT22;27809;51.864;5.646;2023-02-04T01:40:38;6.60;99.90
42141;DHT22;27809;51.864;5.646;2023-02-04T01:43:04;6.70;99.90
42141;DHT22;27809;51.864;5.646;2023-02-04T01:45:30;6.70;99.90
42141;DHT22;27809;51.864;5.646;2023-02-04T01:47:59;6.70;99.90
42141;DHT22;27809;51.864;5.646;2023-02-04T01:50:24;6.60;99.90
42141;DHT22;27809;51.864;5.646;2023-02-04T01:52:50;6.60;99.90
42141;DHT22;27809;51.864;5.646;2023-02-04T01:55:19;6.70;99.90
42141;DHT22;27809;51.864;5.646;2023-02-04T01:57:45;6.80;99.90
42141;DHT22;27809;51.864;5.646;2023-02-04T02:00:21;6.70;99.90
42141;DHT22;27809;51.864;5.646;2023-02-04T02:02:49;6.70;99.90
42141;DHT22;27809;51.864;5.646;2023-02-04T02:05:21;6.60;99.90
42141;DHT22;27809;51.864;5.646;2023-02-04T02:07:48;6.60;99.90
42141;DHT22;27809;51.864;5.646;2023-02-04T02:10:15;6.50;99.90
42141;DHT22;27809;51.864;5.646;2023-02-04T02:12:42;6.40;99.90
42141;DHT22;27809;51.864;5.646;2023-02-04T02:15:09;6.50;99.90
42141;DHT22;27809;51.864;5.646;2023-02-04T02:17:35;6.40;99.90
42141;DHT22;27809;51.864;5.646;2023-02-04T02:20:01;6.40;99.90
42141;DHT22;27809;51.864;5.646;2023-02-04T02:22:41;6.50;99.90
42141;DHT22;27809;51.864;5.646;2023-02-04T02:25:11;6.40;99.90
42141;DHT22;27809;51.864;5.646;2023-02-04T02:27:37;6.50;99.90
42141;DHT22;27809;51.864;5.646;2023-02-04T02:30:04;6.40;99.90
42141;DHT22;27809;51.864;5.646;2023-02-04T02:32:30;6.30;99.90
42141;DHT22;27809;51.864;5.646;2023-02-04T02:34:55;6.40;99.90
42141;DHT22;27809;51.864;5.646;2023-02-04T02:37:21;6.30;99.90
42141;DHT22;27809;51.864;5.646;2023-02-04T02:39:46;6.20;99.90
42141;DHT22;27809;51.864;5.646;2023-02-04T02:42:15;6.30;99.90
42141;DHT22;27809;51.864;5.646;2023-02-04T02:44:42;6.20;99.90
42141;DHT22;27809;51.864;5.646;2023-02-04T02:47:13;6.00;99.90
42141;DHT22;27809;51.864;5.646;2023-02-04T02:49:39;6.20;99.90
42141;DHT22;27809;51.864;5.646;2023-02-04T02:52:05;6.30;99.90
42141;DHT22;27809;51.864;5.646;2023-02-04T02:54:31;6.20;99.90
42141;DHT22;27809;51.864;5.646;2023-02-04T02:56:58;6.30;99.90
42141;DHT22;27809;51.864;5.646;2023-02-04T02:59:25;6.10;99.90
42141;DHT22;27809;51.864;5.646;2023-02-04T03:01:58;6.30;99.90
42141;DHT22;27809;51.864;5.646;2023-02-04T03:04:25;6.40;99.90
42141;DHT22;27809;51.864;5.646;2023-02-04T03:06:52;6.40;99.90
42141;DHT22;27809;51.864;5.646;2023-02-04T03:09:19;6.40;99.90
42141;DHT22;27809;51.864;5.646;2023-02-04T03:11:44;6.40;99.90
42141;DHT22;27809;51.864;5.646;2023-02-04T03:14:10;6.30;99.90
42141;DHT22;27809;51.864;5.646;2023-02-04T03:16:36;6.20;99.90
42141;DHT22;27809;51.864;5.646;2023-02-04T03:19:03;6.20;99.90
42141;DHT22;27809;51.864;5.646;2023-02-04T03:21:30;6.00;99.90
42141;DHT22;27809;51.864;5.646;2023-02-04T03:23:56;6.00;99.90
42141;DHT22;27809;51.864;5.646;2023-02-04T03:26:23;6.10;99.90
42141;DHT22;27809;51.864;5.646;2023-02-04T03:28:49;5.80;99.90
42141;DHT22;27809;51.864;5.646;2023-02-04T03:31:14;5.80;99.90
42141;DHT22;27809;51.864;5.646;2023-02-04T03:33:40;5.70;99.90
42141;DHT22;27809;51.864;5.646;2023-02-04T03:36:07;5.60;99.90
42141;DHT22;27809;51.864;5.646;2023-02-04T03:38:33;5.50;99.90
42141;DHT22;27809;51.864;5.646;2023-02-04T03:40:58;5.60;99.90
42141;DHT22;27809;51.864;5.646;2023-02-04T03:43:24;5.80;99.90
42141;DHT22;27809;51.864;5.646;2023-02-04T03:45:49;5.70;99.90
42141;DHT22;27809;51.864;5.646;2023-02-04T03:48:15;6.00;99.90
42141;DHT22;27809;51.864;5.646;2023-02-04T03:50:40;5.90;99.90
42141;DHT22;27809;51.864;5.646;2023-02-04T03:53:06;6.00;99.90
42141;DHT22;27809;51.864;5.646;2023-02-04T03:55:32;6.00;99.90
42141;DHT22;27809;51.864;5.646;2023-02-04T03:57:57;5.90;99.90
42141;DHT22;27809;51.864;5.646;2023-02-04T04:00:23;5.80;99.90
42141;DHT22;27809;51.864;5.646;2023-02-04T04:02:48;5.70;99.90
42141;DHT22;27809;51.864;5.646;2023-02-04T04:05:14;5.60;99.90
42141;DHT22;27809;51.864;5.646;2023-02-04T04:07:40;5.70;99.90
42141;DHT22;27809;51.864;5.646;2023-02-04T04:10:05;5.60;99.90
42141;DHT22;27809;51.864;5.646;2023-02-04T04:12:31;5.60;99.90
42141;DHT22;27809;51.864;5.646;2023-02-04T04:14:57;5.70;99.90
42141;DHT22;27809;51.864;5.646;2023-02-04T04:17:22;5.50;99.90
42141;DHT22;27809;51.864;5.646;2023-02-04T04:19:48;5.70;99.90
42141;DHT22;27809;51.864;5.646;2023-02-04T04:22:14;5.60;99.90
42141;DHT22;27809;51.864;5.646;2023-02-04T04:24:39;5.50;99.90
42141;DHT22;27809;51.864;5.646;2023-02-04T04:27:05;5.50;99.90
42141;DHT22;27809;51.864;5.646;2023-02-04T04:29:30;5.50;99.90
42141;DHT22;27809;51.864;5.646;2023-02-04T04:31:56;5.50;99.90
42141;DHT22;27809;51.864;5.646;2023-02-04T04:34:21;5.60;99.90
42141;DHT22;27809;51.864;5.646;2023-02-04T04:36:47;5.50;99.90
42141;DHT22;27809;51.864;5.646;2023-02-04T04:39:12;5.60;99.90
42141;DHT22;27809;51.864;5.646;2023-02-04T04:41:38;5.50;99.90
42141;DHT22;27809;51.864;5.646;2023-02-04T04:44:03;5.50;99.90
42141;DHT22;27809;51.864;5.646;2023-02-04T04:46:29;5.50;99.90
42141;DHT22;27809;51.864;5.646;2023-02-04T04:48:54;5.60;99.90
42141;DHT22;27809;51.864;5.646;2023-02-04T04:51:20;5.60;99.90
42141;DHT22;27809;51.864;5.646;2023-02-04T04:53:45;5.60;99.90
42141;DHT22;27809;51.864;5.646;2023-02-04T04:56:11;5.60;99.90
42141;DHT22;27809;51.864;5.646;2023-02-04T04:58:36;5.60;99.90
42141;DHT22;27809;51.864;5.646;2023-02-04T05:01:02;5.50;99.90
42141;DHT22;27809;51.864;5.646;2023-02-04T05:03:27;5.50;99.90
42141;DHT22;27809;51.864;5.646;2023-02-04T05:05:53;5.50;99.90
42141;DHT22;27809;51.864;5.646;2023-02-04T05:08:19;5.50;99.90
42141;DHT22;27809;51.864;5.646;2023-02-04T05:10:45;5.40;99.90
42141;DHT22;27809;51.864;5.646;2023-02-04T05:13:11;5.30;99.90
42141;DHT22;27809;51.864;5.646;2023-02-04T05:15:36;5.30;99.90
42141;DHT22;27809;51.864;5.646;2023-02-04T05:18:02;5.20;99.90
42141;DHT22;27809;51.864;5.646;2023-02-04T05:20:28;5.10;99.90
42141;DHT22;27809;51.864;5.646;2023-02-04T05:22:54;5.10;99.90
42141;DHT22;27809;51.864;5.646;2023-02-04T05:25:26;5.20;99.90
42141;DHT22;27809;51.864;5.646;2023-02-04T05:27:51;5.30;99.90
42141;DHT22;27809;51.864;5.646;2023-02-04T05:30:17;5.50;99.90
42141;DHT22;27809;51.864;5.646;2023-02-04T05:32:42;5.30;99.90
42141;DHT22;27809;51.864;5.646;2023-02-04T05:35:08;5.30;99.90
42141;DHT22;27809;51.864;5.646;2023-02-04T05:37:34;5.40;99.90
42141;DHT22;27809;51.864;5.646;2023-02-04T05:39:59;5.60;99.90
42141;DHT22;27809;51.864;5.646;2023-02-04T05:42:25;5.50;99.90
42141;DHT22;27809;51.864;5.646;2023-02-04T05:44:50;5.60;99.90
42141;DHT22;27809;51.864;5.646;2023-02-04T05:47:16;5.70;99.90
42141;DHT22;27809;51.864;5.646;2023-02-04T05:49:43;5.90;99.90
42141;DHT22;27809;51.864;5.646;2023-02-04T05:52:08;5.80;99.90
42141;DHT22;27809;51.864;5.646;2023-02-04T05:54:34;5.80;99.90
42141;DHT22;27809;51.864;5.646;2023-02-04T05:56:59;5.80;99.90
42141;DHT22;27809;51.864;5.646;2023-02-04T05:59:25;5.90;99.90
42141;DHT22;27809;51.864;5.646;2023-02-04T06:01:50;5.90;99.90
42141;DHT22;27809;51.864;5.646;2023-02-04T06:04:16;6.00;99.90
42141;DHT22;27809;51.864;5.646;2023-02-04T06:06:42;5.90;99.90
42141;DHT22;27809;51.864;5.646;2023-02-04T06:09:08;5.90;99.90
42141;DHT22;27809;51.864;5.646;2023-02-04T06:11:34;5.90;99.90
42141;DHT22;27809;51.864;5.646;2023-02-04T06:13:59;5.90;99.90
42141;DHT22;27809;51.864;5.646;2023-02-04T06:16:25;5.90;99.90
42141;DHT22;27809;51.864;5.646;2023-02-04T06:18:50;5.80;99.90
42141;DHT22;27809;51.864;5.646;2023-02-04T06:21:16;5.90;99.90
42141;DHT22;27809;51.864;5.646;2023-02-04T06:23:41;5.90;99.90
42141;DHT22;27809;51.864;5.646;2023-02-04T06:26:07;5.90;99.90
42141;DHT22;27809;51.864;5.646;2023-02-04T06:28:32;6.00;99.90
42141;DHT22;27809;51.864;5.646;2023-02-04T06:30:58;6.00;99.90
42141;DHT22;27809;51.864;5.646;2023-02-04T06:33:23;6.00;99.90
42141;DHT22;27809;51.864;5.646;2023-02-04T06:35:49;6.00;99.90
42141;DHT22;27809;51.864;5.646;2023-02-04T06:38:15;6.00;99.90
42141;DHT22;27809;51.864;5.646;2023-02-04T06:40:41;5.90;99.90
42141;DHT22;27809;51.864;5.646;2023-02-04T06:43:06;5.90;99.90
42141;DHT22;27809;51.864;5.646;2023-02-04T06:45:32;6.00;99.90
42141;DHT22;27809;51.864;5.646;2023-02-04T06:47:57;6.10;99.90
42141;DHT22;27809;51.864;5.646;2023-02-04T06:50:23;6.20;99.90
42141;DHT22;27809;51.864;5.646;2023-02-04T06:52:48;6.10;99.90
42141;DHT22;27809;51.864;5.646;2023-02-04T06:55:15;6.00;99.90
42141;DHT22;27809;51.864;5.646;2023-02-04T06:57:41;6.00;99.90
42141;DHT22;27809;51.864;5.646;2023-02-04T07:00:08;6.00;99.90
42141;DHT22;27809;51.864;5.646;2023-02-04T07:02:34;6.10;99.90
42141;DHT22;27809;51.864;5.646;2023-02-04T07:05:02;6.00;99.90
42141;DHT22;27809;51.864;5.646;2023-02-04T07:07:27;6.00;99.90
42141;DHT22;27809;51.864;5.646;2023-02-04T07:09:53;6.00;99.90
42141;DHT22;27809;51.864;5.646;2023-02-04T07:12:19;6.00;99.90
42141;DHT22;27809;51.864;5.646;2023-02-04T07:14:44;6.10;99.90
42141;DHT22;27809;51.864;5.646;2023-02-04T07:17:10;6.00;99.90
42141;DHT22;27809;51.864;5.646;2023-02-04T07:19:35;6.10;99.90
42141;DHT22;27809;51.864;5.646;2023-02-04T07:22:04;6.10;99.90
42141;DHT22;27809;51.864;5.646;2023-02-04T07:24:30;6.20;99.90
42141;DHT22;27809;51.864;5.646;2023-02-04T07:26:55;6.10;99.90
42141;DHT22;27809;51.864;5.646;2023-02-04T07:29:21;6.10;99.90
42141;DHT22;27809;51.864;5.646;2023-02-04T07:31:47;6.20;99.90
42141;DHT22;27809;51.864;5.646;2023-02-04T07:34:16;6.20;99.90
42141;DHT22;27809;51.864;5.646;2023-02-04T07:36:42;6.20;99.90
42141;DHT22;27809;51.864;5.646;2023-02-04T07:39:07;6.20;99.90
42141;DHT22;27809;51.864;5.646;2023-02-04T07:41:33;6.20;99.90
42141;DHT22;27809;51.864;5.646;2023-02-04T07:43:59;6.30;99.90
42141;DHT22;27809;51.864;5.646;2023-02-04T07:46:25;6.30;99.90
42141;DHT22;27809;51.864;5.646;2023-02-04T07:48:50;6.30;99.90
42141;DHT22;27809;51.864;5.646;2023-02-04T07:51:16;6.40;99.90
42141;DHT22;27809;51.864;5.646;2023-02-04T07:53:41;6.40;99.90
42141;DHT22;27809;51.864;5.646;2023-02-04T07:56:07;6.40;99.90
42141;DHT22;27809;51.864;5.646;2023-02-04T07:58:32;6.60;99.90
42141;DHT22;27809;51.864;5.646;2023-02-04T08:00:58;6.60;99.90
42141;DHT22;27809;51.864;5.646;2023-02-04T08:03:25;6.60;99.90
42141;DHT22;27809;51.864;5.646;2023-02-04T08:05:51;6.60;99.90
42141;DHT22;27809;51.864;5.646;2023-02-04T08:08:16;6.60;99.90
42141;DHT22;27809;51.864;5.646;2023-02-04T08:10:42;6.70;99.90
42141;DHT22;27809;51.864;5.646;2023-02-04T08:13:07;6.60;99.90
42141;DHT22;27809;51.864;5.646;2023-02-04T08:15:33;6.60;99.90
42141;DHT22;27809;51.864;5.646;2023-02-04T08:17:58;6.70;99.90
42141;DHT22;27809;51.864;5.646;2023-02-04T08:20:24;6.70;99.90
42141;DHT22;27809;51.864;5.646;2023-02-04T08:22:49;6.70;99.90
42141;DHT22;27809;51.864;5.646;2023-02-04T08:25:15;6.70;99.90
42141;DHT22;27809;51.864;5.646;2023-02-04T08:27:41;6.70;99.90
42141;DHT22;27809;51.864;5.646;2023-02-04T08:30:07;6.80;99.90
42141;DHT22;27809;51.864;5.646;2023-02-04T08:32:33;6.90;99.90
42141;DHT22;27809;51.864;5.646;2023-02-04T08:34:59;6.90;99.90
42141;DHT22;27809;51.864;5.646;2023-02-04T08:37:26;6.90;99.90
42141;DHT22;27809;51.864;5.646;2023-02-04T08:39:52;7.00;99.90
42141;DHT22;27809;51.864;5.646;2023-02-04T08:42:18;7.00;99.90
42141;DHT22;27809;51.864;5.646;2023-02-04T08:44:44;7.00;99.90
42141;DHT22;27809;51.864;5.646;2023-02-04T08:47:10;9.50;99.90
42141;DHT22;27809;51.864;5.646;2023-02-04T08:49:36;10.20;99.90
42141;DHT22;27809;51.864;5.646;2023-02-04T08:52:01;8.70;99.90
42141;DHT22;27809;51.864;5.646;2023-02-04T08:54:28;7.90;99.90
42141;DHT22;27809;51.864;5.646;2023-02-04T08:56:54;7.70;99.90
42141;DHT22;27809;51.864;5.646;2023-02-04T08:59:19;8.00;99.90
42141;DHT22;27809;51.864;5.646;2023-02-04T09:01:48;7.60;99.90
42141;DHT22;27809;51.864;5.646;2023-02-04T09:04:17;8.00;99.90
42141;DHT22;27809;51.864;5.646;2023-02-04T09:06:43;7.70;99.90
42141;DHT22;27809;51.864;5.646;2023-02-04T09:09:09;8.20;99.90
42141;DHT22;27809;51.864;5.646;2023-02-04T09:11:34;12.00;99.90
42141;DHT22;27809;51.864;5.646;2023-02-04T09:14:00;11.10;99.90
42141;DHT22;27809;51.864;5.646;2023-02-04T09:16:25;9.10;99.90
42141;DHT22;27809;51.864;5.646;2023-02-04T09:18:51;8.50;99.90
42141;DHT22;27809;51.864;5.646;2023-02-04T09:21:16;8.20;99.90
42141;DHT22;27809;51.864;5.646;2023-02-04T09:23:42;8.20;99.90
42141;DHT22;27809;51.864;5.646;2023-02-04T09:26:07;8.20;99.90
42141;DHT22;27809;51.864;5.646;2023-02-04T09:28:33;8.20;99.90
42141;DHT22;27809;51.864;5.646;2023-02-04T09:30:58;8.20;99.90
42141;DHT22;27809;51.864;5.646;2023-02-04T09:33:24;8.30;99.90
42141;DHT22;27809;51.864;5.646;2023-02-04T09:35:50;8.20;99.90
42141;DHT22;27809;51.864;5.646;2023-02-04T09:38:15;8.30;99.90
42141;DHT22;27809;51.864;5.646;2023-02-04T09:40:44;8.20;99.90
42141;DHT22;27809;51.864;5.646;2023-02-04T09:43:19;8.20;99.90
42141;DHT22;27809;51.864;5.646;2023-02-04T09:45:47;8.60;99.90
42141;DHT22;27809;51.864;5.646;2023-02-04T09:48:13;8.80;99.90
42141;DHT22;27809;51.864;5.646;2023-02-04T09:50:40;9.00;99.90
42141;DHT22;27809;51.864;5.646;2023-02-04T09:53:06;9.10;99.90
42141;DHT22;27809;51.864;5.646;2023-02-04T09:55:37;9.20;99.90
42141;DHT22;27809;51.864;5.646;2023-02-04T09:58:10;9.00;99.90
42141;DHT22;27809;51.864;5.646;2023-02-04T10:00:37;9.00;99.90
42141;DHT22;27809;51.864;5.646;2023-02-04T10:03:02;8.90;99.90
42141;DHT22;27809;51.864;5.646;2023-02-04T10:05:34;9.00;99.90
42141;DHT22;27809;51.864;5.646;2023-02-04T10:08:03;8.90;99.90
42141;DHT22;27809;51.864;5.646;2023-02-04T10:10:29;8.90;99.90
42141;DHT22;27809;51.864;5.646;2023-02-04T10:12:59;9.10;99.90
42141;DHT22;27809;51.864;5.646;2023-02-04T10:15:26;9.30;99.90
42141;DHT22;27809;51.864;5.646;2023-02-04T10:18:01;9.40;99.90
42141;DHT22;27809;51.864;5.646;2023-02-04T10:20:27;10.00;99.90
42141;DHT22;27809;51.864;5.646;2023-02-04T10:22:54;10.40;99.90
42141;DHT22;27809;51.864;5.646;2023-02-04T10:25:22;10.40;99.90
42141;DHT22;27809;51.864;5.646;2023-02-04T10:27:49;10.30;99.90
42141;DHT22;27809;51.864;5.646;2023-02-04T10:30:23;10.40;99.90
42141;DHT22;27809;51.864;5.646;2023-02-04T10:32:50;10.10;99.90
42141;DHT22;27809;51.864;5.646;2023-02-04T10:35:17;10.20;99.90
42141;DHT22;27809;51.864;5.646;2023-02-04T10:37:43;10.30;99.90
42141;DHT22;27809;51.864;5.646;2023-02-04T10:40:32;10.30;99.90
42141;DHT22;27809;51.864;5.646;2023-02-04T10:42:58;10.10;99.90
42141;DHT22;27809;51.864;5.646;2023-02-04T10:45:28;10.20;99.90
42141;DHT22;27809;51.864;5.646;2023-02-04T10:47:55;10.60;99.90
42141;DHT22;27809;51.864;5.646;2023-02-04T10:50:23;11.30;99.90
42141;DHT22;27809;51.864;5.646;2023-02-04T10:52:57;10.60;99.90
42141;DHT22;27809;51.864;5.646;2023-02-04T10:55:45;10.40;99.90
42141;DHT22;27809;51.864;5.646;2023-02-04T10:58:14;10.60;99.90
42141;DHT22;27809;51.864;5.646;2023-02-04T11:00:41;10.60;99.90
42141;DHT22;27809;51.864;5.646;2023-02-04T11:03:14;11.30;99.90
42141;DHT22;27809;51.864;5.646;2023-02-04T11:05:40;11.20;99.00
42141;DHT22;27809;51.864;5.646;2023-02-04T11:10:54;11.70;97.10
42141;DHT22;27809;51.864;5.646;2023-02-04T11:13:22;11.20;98.50
42141;DHT22;27809;51.864;5.646;2023-02-04T11:15:49;10.90;99.60
42141;DHT22;27809;51.864;5.646;2023-02-04T11:20:44;11.20;96.80
42141;DHT22;27809;51.864;5.646;2023-02-04T11:23:31;11.60;99.10
42141;DHT22;27809;51.864;5.646;2023-02-04T11:26:07;11.40;98.30
42141;DHT22;27809;51.864;5.646;2023-02-04T11:33:47;13.70;99.90
42141;DHT22;27809;51.864;5.646;2023-02-04T11:36:14;11.80;87.80
42141;DHT22;27809;51.864;5.646;2023-02-04T11:38:48;10.60;96.60
42141;DHT22;27809;51.864;5.646;2023-02-04T11:41:33;10.20;99.90
42141;DHT22;27809;51.864;5.646;2023-02-04T11:43:59;10.40;99.90
42141;DHT22;27809;51.864;5.646;2023-02-04T11:46:28;10.70;99.90
42141;DHT22;27809;51.864;5.646;2023-02-04T11:48:56;10.30;99.90
42141;DHT22;27809;51.864;5.646;2023-02-04T11:51:27;10.30;99.90
42141;DHT22;27809;51.864;5.646;2023-02-04T11:53:54;10.70;99.90
42141;DHT22;27809;51.864;5.646;2023-02-04T11:56:20;11.20;97.70
42141;DHT22;27809;51.864;5.646;2023-02-04T11:58:47;11.60;97.20
42141;DHT22;27809;51.864;5.646;2023-02-04T12:01:32;11.80;96.40
42141;DHT22;27809;51.864;5.646;2023-02-04T12:04:00;11.80;95.10
42141;DHT22;27809;51.864;5.646;2023-02-04T12:06:28;12.50;93.60
42141;DHT22;27809;51.864;5.646;2023-02-04T12:09:18;11.80;91.70
42141;DHT22;27809;51.864;5.646;2023-02-04T12:11:57;11.60;95.40
42141;DHT22;27809;51.864;5.646;2023-02-04T12:14:29;11.60;92.60
42141;DHT22;27809;51.864;5.646;2023-02-04T12:16:55;11.80;91.70
42141;DHT22;27809;51.864;5.646;2023-02-04T12:19:21;11.50;92.20
42141;DHT22;27809;51.864;5.646;2023-02-04T12:21:46;11.30;92.70
42141;DHT22;27809;51.864;5.646;2023-02-04T12:24:12;11.20;93.50
42141;DHT22;27809;51.864;5.646;2023-02-04T12:26:38;11.20;92.80
42141;DHT22;27809;51.864;5.646;2023-02-04T12:29:03;12.40;84.80
42141;DHT22;27809;51.864;5.646;2023-02-04T12:31:30;11.60;93.70
42141;DHT22;27809;51.864;5.646;2023-02-04T12:33:56;11.30;91.50
42141;DHT22;27809;51.864;5.646;2023-02-04T12:36:21;11.40;90.60
42141;DHT22;27809;51.864;5.646;2023-02-04T12:38:47;11.30;87.40
42141;DHT22;27809;51.864;5.646;2023-02-04T12:41:12;11.40;90.20
42141;DHT22;27809;51.864;5.646;2023-02-04T12:43:38;12.10;83.30
42141;DHT22;27809;51.864;5.646;2023-02-04T12:46:04;13.00;79.50
42141;DHT22;27809;51.864;5.646;2023-02-04T12:48:29;12.50;84.90
42141;DHT22;27809;51.864;5.646;2023-02-04T12:50:55;12.60;91.50
42141;DHT22;27809;51.864;5.646;2023-02-04T12:53:20;12.50;92.10
42141;DHT22;27809;51.864;5.646;2023-02-04T12:55:46;12.20;86.60
42141;DHT22;27809;51.864;5.646;2023-02-04T12:58:12;11.60;93.40
42141;DHT22;27809;51.864;5.646;2023-02-04T13:00:37;12.10;93.50
42141;DHT22;27809;51.864;5.646;2023-02-04T13:03:03;12.00;90.90
42141;DHT22;27809;51.864;5.646;2023-02-04T13:05:29;12.30;91.10
42141;DHT22;27809;51.864;5.646;2023-02-04T13:07:55;15.40;98.00
42141;DHT22;27809;51.864;5.646;2023-02-04T13:10:22;20.80;39.10
42141;DHT22;27809;51.864;5.646;2023-02-04T13:12:48;21.70;38.10
42141;DHT22;27809;51.864;5.646;2023-02-04T13:15:14;15.60;28.00
42141;DHT22;27809;51.864;5.646;2023-02-04T13:17:39;13.70;99.90
42141;DHT22;27809;51.864;5.646;2023-02-04T13:20:05;15.70;39.90
42141;DHT22;27809;51.864;5.646;2023-02-04T13:22:31;16.50;37.70
42141;DHT22;27809;51.864;5.646;2023-02-04T13:24:56;13.70;52.50
42141;DHT22;27809;51.864;5.646;2023-02-04T13:27:22;13.20;65.60
42141;DHT22;27809;51.864;5.646;2023-02-04T13:29:47;12.40;69.10
42141;DHT22;27809;51.864;5.646;2023-02-04T13:32:13;12.00;72.80
42141;DHT22;27809;51.864;5.646;2023-02-04T13:34:39;12.00;78.10
42141;DHT22;27809;51.864;5.646;2023-02-04T13:37:04;11.80;78.20
42141;DHT22;27809;51.864;5.646;2023-02-04T13:39:30;11.70;78.40
42141;DHT22;27809;51.864;5.646;2023-02-04T13:41:55;11.50;85.70
42141;DHT22;27809;51.864;5.646;2023-02-04T13:44:21;11.50;75.10
42141;DHT22;27809;51.864;5.646;2023-02-04T13:46:47;14.40;99.90
42141;DHT22;27809;51.864;5.646;2023-02-04T13:49:12;19.20;24.50
42141;DHT22;27809;51.864;5.646;2023-02-04T13:51:38;14.40;40.80
42141;DHT22;27809;51.864;5.646;2023-02-04T13:54:03;12.70;62.80
42141;DHT22;27809;51.864;5.646;2023-02-04T13:56:29;11.80;79.60
42141;DHT22;27809;51.864;5.646;2023-02-04T13:58:57;11.80;78.90
42141;DHT22;27809;51.864;5.646;2023-02-04T14:01:22;11.80;76.00
42141;DHT22;27809;51.864;5.646;2023-02-04T14:03:48;11.70;75.40
42141;DHT22;27809;51.864;5.646;2023-02-04T14:06:14;12.70;71.50
42141;DHT22;27809;51.864;5.646;2023-02-04T14:08:39;11.90;71.80
42141;DHT22;27809;51.864;5.646;2023-02-04T14:11:05;13.80;98.30
42141;DHT22;27809;51.864;5.646;2023-02-04T14:13:31;19.60;37.40
42141;DHT22;27809;51.864;5.646;2023-02-04T14:15:57;19.10;37.20
42141;DHT22;27809;51.864;5.646;2023-02-04T14:18:23;15.80;28.50
42141;DHT22;27809;51.864;5.646;2023-02-04T14:20:48;14.30;86.40
42141;DHT22;27809;51.864;5.646;2023-02-04T14:23:14;13.10;51.80
42141;DHT22;27809;51.864;5.646;2023-02-04T14:25:40;12.00;66.30
42141;DHT22;27809;51.864;5.646;2023-02-04T14:28:05;11.50;73.50
42141;DHT22;27809;51.864;5.646;2023-02-04T14:30:31;11.50;77.10
42141;DHT22;27809;51.864;5.646;2023-02-04T14:32:57;11.10;80.10
42141;DHT22;27809;51.864;5.646;2023-02-04T14:35:24;15.30;75.20
42141;DHT22;27809;51.864;5.646;2023-02-04T14:37:50;18.40;33.80
42141;DHT22;27809;51.864;5.646;2023-02-04T14:40:17;19.60;31.20
42141;DHT22;27809;51.864;5.646;2023-02-04T14:42:43;20.10;27.50
42141;DHT22;27809;51.864;5.646;2023-02-04T14:45:10;20.20;26.10
42141;DHT22;27809;51.864;5.646;2023-02-04T14:47:36;20.10;25.40
42141;DHT22;27809;51.864;5.646;2023-02-04T14:50:03;17.10;26.60
42141;DHT22;27809;51.864;5.646;2023-02-04T14:52:29;13.50;50.50
42141;DHT22;27809;51.864;5.646;2023-02-04T14:54:54;12.90;56.70
42141;DHT22;27809;51.864;5.646;2023-02-04T14:57:20;11.90;62.20
42141;DHT22;27809;51.864;5.646;2023-02-04T14:59:45;11.50;74.00
42141;DHT22;27809;51.864;5.646;2023-02-04T15:02:11;11.20;80.50
42141;DHT22;27809;51.864;5.646;2023-02-04T15:04:40;10.90;82.40
42141;DHT22;27809;51.864;5.646;2023-02-04T15:07:06;10.90;85.40
42141;DHT22;27809;51.864;5.646;2023-02-04T15:09:32;10.80;89.40
42141;DHT22;27809;51.864;5.646;2023-02-04T15:11:58;10.80;90.30
42141;DHT22;27809;51.864;5.646;2023-02-04T15:14:23;10.60;94.10
42141;DHT22;27809;51.864;5.646;2023-02-04T15:16:48;10.60;94.40
42141;DHT22;27809;51.864;5.646;2023-02-04T15:19:15;11.80;95.30
42141;DHT22;27809;51.864;5.646;2023-02-04T15:21:40;13.80;50.00
42141;DHT22;27809;51.864;5.646;2023-02-04T15:24:06;11.60;78.80
42141;DHT22;27809;51.864;5.646;2023-02-04T15:26:31;10.80;92.80
42141;DHT22;27809;51.864;5.646;2023-02-04T15:28:57;10.60;93.80
42141;DHT22;27809;51.864;5.646;2023-02-04T15:31:23;10.60;95.60
42141;DHT22;27809;51.864;5.646;2023-02-04T15:33:49;10.40;93.80
42141;DHT22;27809;51.864;5.646;2023-02-04T15:36:15;10.40;96.30
42141;DHT22;27809;51.864;5.646;2023-02-04T15:38:41;10.30;97.60
42141;DHT22;27809;51.864;5.646;2023-02-04T15:41:07;10.30;94.60
42141;DHT22;27809;51.864;5.646;2023-02-04T15:43:32;10.20;97.80
42141;DHT22;27809;51.864;5.646;2023-02-04T15:45:58;10.10;97.00